ADDS METAR Data INFO
IDs: Format: Raw Decoded Include TAF

Data at: 2055 UTC 19 Jul 2018

KBWW 192035Z AUTO 32010KT 10SM CLR 29/13 A2984 RMK AO2
KBWW 192015Z AUTO 32006G12KT 10SM CLR 29/13 A2984 RMK AO2
KBWW 191955Z AUTO 33007G13KT 10SM CLR 28/13 A2984 RMK AO2
KBWW 191935Z AUTO 34009KT 10SM CLR 28/12 A2984 RMK AO2
KBWW 191915Z AUTO 35011KT 10SM CLR 28/12 A2984 RMK AO2
KBWW 191855Z AUTO 34012KT 10SM CLR 28/11 A2984 RMK AO2
KBWW 191835Z AUTO 33011G17KT 10SM CLR 27/13 A2984 RMK AO2
KBWW 191815Z AUTO 36011G17KT 10SM CLR 27/14 A2984 RMK AO2
KBWW 191755Z AUTO 34011G17KT 10SM CLR 27/13 A2984 RMK AO2
KBWW 191735Z AUTO 34012KT 10SM CLR 27/13 A2984 RMK AO2
KBWW 191715Z AUTO 34013KT 10SM CLR 26/12 A2984 RMK AO2
KBWW 191655Z AUTO 34011KT 10SM CLR 26/13 A2984 RMK AO2
KBWW 191635Z AUTO 35012KT 10SM CLR 26/12 A2984 RMK AO2
KBWW 191615Z AUTO 33010KT 10SM CLR 26/13 A2984 RMK AO2
KBWW 191555Z AUTO 32008KT 10SM CLR 26/12 A2984 RMK AO2
KBWW 191535Z AUTO 30007KT 10SM CLR 25/14 A2984 RMK AO2
KBWW 191515Z AUTO 29010KT 10SM CLR 24/15 A2983 RMK AO2
KBWW 191455Z AUTO 27009KT 10SM CLR 24/16 A2983 RMK AO2
KBWW 191435Z AUTO 25011KT 10SM CLR 22/15 A2982 RMK AO2
KBWW 191415Z AUTO 25010KT 10SM CLR 21/16 A2982 RMK AO2
KBWW 191355Z AUTO 24010KT 10SM CLR 20/15 A2982 RMK AO2
KBWW 191335Z AUTO 25007KT 10SM CLR 19/14 A2982 RMK AO2
KBWW 191315Z AUTO 24009KT 10SM CLR 18/14 A2982 RMK AO2
KBWW 191255Z AUTO 26006KT 10SM CLR 16/14 A2982 RMK AO2
KBWW 191235Z AUTO 27007KT 10SM SCT085 15/13 A2982 RMK AO2
KBWW 191215Z AUTO 26003KT 10SM FEW085 15/13 A2981 RMK AO2
KBWW 191155Z AUTO 22008KT 10SM CLR 15/13 A2980 RMK AO2
KBWW 191135Z AUTO 22008KT 10SM CLR 14/14 A2979 RMK AO2
KBWW 191115Z AUTO 21007KT 10SM CLR 15/14 A2979 RMK AO2
KBWW 191055Z AUTO 21007KT 10SM -RA FEW033 FEW049 BKN070 16/14 A2981 RMK AO2 P0002
KBWW 191035Z AUTO 22004KT 10SM FEW044 SCT060 OVC110 16/14 A2983 RMK AO2 LTG DSNT S AND SW
KBWW 191015Z AUTO 04008G13KT 10SM -RA FEW037 SCT048 BKN060 16/14 A2984 RMK AO2 LTG DSNT NE AND SW
KBWW 190955Z AUTO 33015G21KT 9SM -DZ FEW044 BKN070 OVC095 17/14 A2988 RMK AO2 P0001 TSNO
KBWW 190935Z AUTO 31018G25KT 9SM VCTS DZ FEW055 BKN065 OVC100 16/15 A2989 RMK AO2 LTG DSNT ALQDS
KBWW 190915Z AUTO 32006G11KT 10SM VCTS RA FEW060 SCT075 OVC100 15/14 A2984 RMK AO2 LTG DSNT E AND W AND NW
KBWW 190855Z AUTO 24009KT 10SM TS SCT100 14/14 A2981 RMK AO2 LTG DSNT W AND NW
KBWW 190835Z AUTO 24009KT 9SM FEW120 13/13 A2981 RMK AO2 LTG DSNT W AND NW
KBWW 190815Z AUTO 24008KT 9SM FEW120 14/14 A2981 RMK AO2
KBWW 190755Z AUTO 23008KT 10SM CLR 14/14 A2981 RMK AO2
KBWW 190735Z AUTO 22004KT 10SM CLR 15/15 A2981 RMK AO2
KBWW 190715Z AUTO 22005KT 9SM CLR 14/14 A2982 RMK AO2
KBWW 190655Z AUTO 21005KT 10SM CLR 15/15 A2982 RMK AO2
KBWW 190635Z AUTO 23008KT 10SM CLR 15/15 A2983 RMK AO2
KBWW 190615Z AUTO 24008KT 8SM CLR 14/14 A2983 RMK AO2
KBWW 190555Z AUTO 23006KT 7SM CLR 15/15 A2983 RMK AO2
KBWW 190535Z AUTO 24006KT 9SM CLR 15/15 A2985 RMK AO2
KBWW 190515Z AUTO 24004KT 10SM CLR 15/15 A2986 RMK AO2
KBWW 190455Z AUTO 00000KT 10SM CLR 16/16 A2986 RMK AO2
KBWW 190435Z AUTO 00000KT 10SM FEW120 16/15 A2987 RMK AO2
KBWW 190415Z AUTO 00000KT 10SM CLR 17/16 A2987 RMK AO2
KBWW 190355Z AUTO 00000KT 10SM CLR 16/16 A2987 RMK AO2
KBWW 190335Z AUTO 00000KT 10SM CLR 17/16 A2987 RMK AO2
KBWW 190315Z AUTO 06003KT 10SM CLR 17/16 A2986 RMK AO2
KBWW 190255Z AUTO 04004KT 10SM CLR 17/16 A2987 RMK AO2
KBWW 190235Z AUTO 04005KT 10SM CLR 17/16 A2986 RMK AO2
KBWW 190215Z AUTO 04004KT 10SM FEW016 18/16 A2986 RMK AO2
KBWW 190155Z AUTO 07007KT 10SM FEW016 19/16 A2985 RMK AO2
KBWW 190135Z AUTO 07006G13KT 10SM CLR 19/16 A2986 RMK AO2
KBWW 190115Z AUTO 08011G19KT 10SM FEW021 20/16 A2984 RMK AO2
KBWW 190055Z AUTO 06011KT 10SM SCT020 21/16 A2985 RMK AO2
KBWW 190035Z AUTO 04011KT 10SM FEW019 SCT026 SCT035 21/16 A2985 RMK AO2
KBWW 190015Z AUTO 02013KT 10SM SCT020 SCT048 21/17 A2986 RMK AO2
KBWW 182355Z AUTO 05013KT 10SM FEW019 SCT024 21/17 A2984 RMK AO2
KBWW 182335Z AUTO 05014KT 10SM SCT020 SCT028 BKN043 22/17 A2984 RMK AO2
KBWW 182315Z AUTO 04016KT 10SM SCT019 SCT027 BKN040 21/17 A2984 RMK AO2
KBWW 182255Z AUTO 05014G21KT 10SM SCT019 BKN028 BKN037 22/17 A2983 RMK AO2
KBWW 182235Z AUTO 05013G20KT 10SM SCT017 BKN024 BKN031 21/18 A2984 RMK AO2
KBWW 182215Z AUTO 04015G20KT 10SM SCT016 BKN023 BKN027 22/18 A2984 RMK AO2
KBWW 182155Z AUTO 04012G18KT 10SM SCT017 BKN029 OVC100 21/18 A2984 RMK AO2
KBWW 182135Z AUTO 03014KT 10SM SCT015 SCT046 BKN070 21/18 A2984 RMK AO2
KBWW 182115Z AUTO 04014KT 10SM FEW009 SCT014 BKN046 20/18 A2984 RMK AO2
KBWW 182055Z AUTO 04015KT 10SM SCT013 BKN021 OVC065 20/18 A2985 RMK AO2
KBWW 182035Z AUTO 04016KT 10SM BKN014 BKN021 OVC055 20/18 A2984 RMK AO2
KBWW 182015Z AUTO 07011G18KT 9SM BKN014 OVC024 19/17 A2985 RMK AO2
KBWW 181955Z AUTO 05014KT 10SM BKN014 BKN026 OVC070 20/18 A2984 RMK AO2
KBWW 181935Z AUTO 06013KT 10SM BKN011 BKN016 OVC070 20/18 A2984 RMK AO2
KBWW 181915Z AUTO 06013KT 10SM SCT007 BKN012 BKN022 20/19 A2985 RMK AO2
KBWW 181855Z AUTO 07011KT 5SM -RA SCT006 BKN015 BKN032 19/19 A2985 RMK AO2 P0008
KBWW 181835Z AUTO 06011KT 2SM -RA SCT006 SCT015 BKN030 18/18 A2985 RMK AO2
KBWW 181815Z AUTO 07011KT 2SM -RA SCT006 SCT013 BKN033 18/18 A2986 RMK AO2
KBWW 181755Z AUTO 05013KT 1 3/4SM -RA SCT006 BKN012 OVC033 18/18 A2986 RMK AO2 P0004
KBWW 181735Z AUTO 09008G13KT 10SM SCT014 BKN021 OVC060 19/17 A2987 RMK AO2
KBWW 181715Z AUTO 13005KT 7SM FEW021 BKN032 OVC060 19/17 A2988 RMK AO2
KBWW 181655Z AUTO 10010KT 10SM FEW020 SCT025 BKN065 20/16 A2988 RMK AO2
KBWW 181635Z AUTO 08008KT 10SM FEW021 SCT060 BKN075 21/16 A2987 RMK AO2
KBWW 181615Z AUTO 07009KT 10SM FEW022 BKN100 22/16 A2988 RMK AO2
KBWW 181555Z AUTO 11007KT 10SM BKN090 BKN110 22/16 A2988 RMK AO2
KBWW 181535Z AUTO 00000KT 10SM BKN090 20/16 A2989 RMK AO2
KBWW 181515Z AUTO 17005KT 10SM CLR 20/16 A2990 RMK AO2
KBWW 181455Z AUTO 00000KT 10SM SCT110 20/16 A2990 RMK AO2
KBWW 181435Z AUTO 00000KT 10SM SCT110 19/17 A2990 RMK AO2
KBWW 181415Z AUTO 18003KT 10SM FEW100 19/17 A2990 RMK AO2
KBWW 181355Z AUTO 15010KT 120V180 10SM FEW050 SCT075 BKN100 19/17 A2990 RMK AO2 P0001
KBWW 181335Z AUTO 13003KT 10SM FEW047 SCT055 BKN090 18/18 A2991 RMK AO2
KBWW 181315Z AUTO 12005KT 8SM -RA FEW060 FEW070 BKN080 18/18 A2991 RMK AO2
KBWW 181255Z AUTO 14007KT 10SM -DZ BKN085 OVC100 18/18 A2992 RMK AO2
KBWW 181235Z AUTO 12008KT 10SM BKN075 OVC085 18/18 A2991 RMK AO2
KBWW 181215Z AUTO 15009KT 10SM SCT070 OVC080 18/18 A2991 RMK AO2
KBWW 181155Z AUTO 13005KT 10SM FEW031 BKN075 OVC095 17/17 A2992 RMK AO2
KBWW 181135Z AUTO 14008KT 10SM FEW050 SCT070 BKN075 18/17 A2991 RMK AO2
KBWW 181115Z AUTO 00000KT 10SM FEW065 SCT075 OVC100 17/17 A2989 RMK AO2
KBWW 181055Z AUTO 03005KT 10SM FEW050 SCT075 BKN090 17/16 A2989 RMK AO2 P0001
KBWW 181035Z AUTO 04006KT 10SM FEW060 SCT095 BKN120 17/17 A2989 RMK AO2 LTG DSNT SE AND NW
KBWW 181015Z AUTO 06005KT 10SM -RA FEW048 BKN070 OVC120 18/17 A2989 RMK AO2 LTG DSNT N AND NW
KBWW 180955Z AUTO 00000KT 7SM FEW043 SCT070 OVC085 18/16 A2988 RMK AO2 LTG DSNT ALQDS P0023
KBWW 180935Z AUTO VRB05KT 10SM TS FEW004 SCT036 OVC080 19/16 A2991 RMK AO2 LTG DSNT NW-E
KBWW 180915Z AUTO VRB04G13KT 3SM TSRA SCT004 BKN035 OVC060 18/16 A2989 RMK AO2 LTG DSNT ALQDS